TimeEET,TemperatureF,Dew PointF,Humidity,Sea Level PressureIn,VisibilityMPH,Wind Direction,Wind SpeedMPH,Gust SpeedMPH,PrecipitationIn,Events,Conditions,WindDirDegrees,DateUTC
12:20 AM,35.6,30.2,81,30.39,6.2,Calm,Calm,-,N/A,,Partly Cloudy,0,2013-01-03 22:20:00
12:50 AM,33.8,30.2,87,30.36,6.2,Variable,3.5,-,N/A,,Partly Cloudy,0,2013-01-03 22:50:00
1:20 AM,33.8,30.2,87,30.36,6.2,Variable,3.5,-,N/A,,Partly Cloudy,0,2013-01-03 23:20:00
1:50 AM,33.8,30.2,87,30.36,6.2,ESE,4.6,-,N/A,,Partly Cloudy,110,2013-01-03 23:50:00
2:20 AM,33.8,30.2,87,30.36,6.2,Variable,3.5,-,N/A,,Partly Cloudy,0,2013-01-04 00:20:00
2:50 AM,32.0,28.4,87,30.33,6.2,ESE,4.6,-,N/A,,Partly Cloudy,110,2013-01-04 00:50:00
3:20 AM,33.8,30.2,87,30.33,6.2,ESE,6.9,-,N/A,,Partly Cloudy,120,2013-01-04 01:20:00
3:50 AM,32.0,28.4,87,30.33,6.2,ESE,4.6,-,N/A,,Partly Cloudy,120,2013-01-04 01:50:00
4:20 AM,32.0,28.4,87,30.33,6.2,ESE,4.6,-,N/A,,Partly Cloudy,120,2013-01-04 02:20:00
5:50 AM,32.0,28.4,87,30.30,6.2,ESE,4.6,-,N/A,,Partly Cloudy,120,2013-01-04 03:50:00
6:20 AM,32.0,28.4,87,30.27,6.2,ESE,5.8,-,N/A,,Partly Cloudy,110,2013-01-04 04:20:00
6:50 AM,32.0,30.2,93,30.27,6.2,ESE,3.5,-,N/A,,Partly Cloudy,110,2013-01-04 04:50:00
7:20 AM,32.0,28.4,87,30.27,6.2,Calm,Calm,-,N/A,,Scattered Clouds,0,2013-01-04 05:20:00
7:50 AM,30.2,28.4,93,30.27,6.2,Calm,Calm,-,N/A,,Partly Cloudy,0,2013-01-04 05:50:00
8:00 AM,31,28,86,30.27,6,Calm,Calm,,,,Scattered Clouds,,2013-01-04 06:00:00
8:20 AM,33.8,32.0,93,30.24,6.2,NW,9.2,-,N/A,,Partly Cloudy,320,2013-01-04 06:20:00
8:50 AM,44.6,35.6,71,30.24,6.2,NW,19.6,-,N/A,,Scattered Clouds,320,2013-01-04 06:50:00
9:20 AM,46.4,35.6,66,30.24,6.2,NW,19.6,-,N/A,,Scattered Clouds,320,2013-01-04 07:20:00
9:50 AM,48.2,35.6,62,30.24,6.2,NNW,16.1,-,N/A,,Mostly Cloudy,330,2013-01-04 07:50:00
10:20 AM,48.2,35.6,62,30.24,6.2,NNW,16.1,-,N/A,,Mostly Cloudy,330,2013-01-04 08:20:00
10:50 AM,48.2,35.6,62,30.24,6.2,NW,13.8,-,N/A,,Scattered Clouds,310,2013-01-04 08:50:00
11:20 AM,48.2,35.6,62,30.21,6.2,NW,13.8,-,N/A,,Scattered Clouds,310,2013-01-04 09:20:00
11:50 AM,50.0,35.6,58,30.21,6.2,NW,13.8,-,N/A,,Scattered Clouds,310,2013-01-04 09:50:00
12:20 PM,51.8,35.6,54,30.18,6.2,NW,13.8,-,N/A,,Scattered Clouds,310,2013-01-04 10:20:00
12:50 PM,53.6,35.6,51,30.15,6.2,NW,17.3,-,N/A,,Scattered Clouds,310,2013-01-04 10:50:00
1:20 PM,53.6,35.6,51,30.15,6.2,NW,15.0,-,N/A,,Scattered Clouds,310,2013-01-04 11:20:00
1:50 PM,57.2,39.2,51,30.15,6.2,WNW,13.8,-,N/A,,Mostly Cloudy,300,2013-01-04 11:50:00
2:00 PM,56,39,41,30.15,6,WNW,13.8,,,,Scattered Clouds,300,2013-01-04 12:00:00
2:20 PM,55.4,35.6,47,30.12,6.2,NNW,27.6,-,N/A,,Mostly Cloudy,330,2013-01-04 12:20:00
2:50 PM,57.2,37.4,48,30.12,6.2,NNW,23.0,34.5,N/A,,Mostly Cloudy,330,2013-01-04 12:50:00
3:20 PM,57.2,37.4,48,30.12,6.2,NNW,23.0,34.5,N/A,,Mostly Cloudy,330,2013-01-04 13:20:00
3:50 PM,55.4,37.4,51,30.12,6.2,NNW,19.6,31.1,N/A,,Mostly Cloudy,340,2013-01-04 13:50:00
4:20 PM,55.4,37.4,51,30.09,6.2,NNW,19.6,31.1,N/A,,Mostly Cloudy,340,2013-01-04 14:20:00
4:50 PM,55.4,37.4,51,30.09,6.2,NNW,23.0,34.5,N/A,,Mostly Cloudy,340,2013-01-04 14:50:00
5:20 PM,55.4,37.4,51,30.09,6.2,North,20.7,-,N/A,,Mostly Cloudy,350,2013-01-04 15:20:00
5:50 PM,55.4,37.4,51,30.09,6.2,NNW,20.7,-,N/A,,Mostly Cloudy,340,2013-01-04 15:50:00
6:20 PM,55.4,37.4,51,30.09,6.2,NNW,20.7,-,N/A,,Mostly Cloudy,340,2013-01-04 16:20:00
6:50 PM,53.6,37.4,54,30.09,6.2,NNW,20.7,-,N/A,,Scattered Clouds,340,2013-01-04 16:50:00
7:20 PM,53.6,37.4,54,30.09,6.2,NNW,20.7,-,N/A,,Scattered Clouds,340,2013-01-04 17:20:00
7:50 PM,55.4,37.4,51,30.09,6.2,NNW,20.7,32.2,N/A,,Scattered Clouds,340,2013-01-04 17:50:00
8:00 PM,55,38,40,30.11,6,NNW,20.7,,,,Scattered Clouds,340,2013-01-04 18:00:00
8:20 PM,55.4,37.4,51,30.09,6.2,NNW,20.7,32.2,N/A,,Scattered Clouds,340,2013-01-04 18:20:00
8:50 PM,53.6,35.6,51,30.09,6.2,NW,20.7,32.2,N/A,,Scattered Clouds,320,2013-01-04 18:50:00
9:20 PM,53.6,35.6,51,30.09,6.2,NW,23.0,36.8,N/A,,Scattered Clouds,320,2013-01-04 19:20:00
9:50 PM,53.6,33.8,47,30.09,6.2,NNW,18.4,-,N/A,,Scattered Clouds,330,2013-01-04 19:50:00
10:20 PM,53.6,33.8,47,30.09,6.2,NNW,17.3,29.9,N/A,,Scattered Clouds,330,2013-01-04 20:20:00
10:50 PM,53.6,35.6,51,30.09,6.2,NNW,23.0,34.5,N/A,,Scattered Clouds,330,2013-01-04 20:50:00
11:20 PM,53.6,35.6,51,30.09,6.2,NNW,23.0,36.8,N/A,,Scattered Clouds,330,2013-01-04 21:20:00
11:50 PM,53.6,32.0,44,30.09,6.2,NNW,18.4,29.9,N/A,,Scattered Clouds,340,2013-01-04 21:50:00